Terminal Aerodrome Forecast
Issued by NWS

Home | Current Version | Previous Version | Graphics & Text | Print | Product List | Glossary On
Versions: 1 2 3 4 5 6 7 8 9 10 11 12 13 14 15 16
000
FTUS43 KGRB 210852 AAA
TAFRHI
TAF AMD
KRHI 210852Z 2109/2206 VRB03KT P6SM BKN035
      TEMPO 2109/2113 3SM BR
     FM211300 11002KT P6SM SCT060
     FM211800 20005KT P6SM SCT040 BKN100 PROB30 2120/2202 3SM -TSRA
      BKN040CB
     FM220200 22004KT 6SM -SHRA SCT025 OVC040
      TEMPO 2202/2206 4SM -TSRA BKN025CB=

USA.gov is the U.S. government's official web portal to all federal, state and local government web resources and services.